createdAt,value
2023-03-16T00:00:55.912Z,2.72
2023-03-16T00:03:23.471Z,2.71
2023-03-16T00:05:54.166Z,2.72
2023-03-16T00:08:21.571Z,2.72
2023-03-16T00:10:49.372Z,2.65
2023-03-16T00:13:23.972Z,2.63
2023-03-16T00:15:58.900Z,2.43
2023-03-16T00:18:29.136Z,2.35
2023-03-16T00:21:05.405Z,2.34
2023-03-16T00:23:35.901Z,2.30
2023-03-16T00:26:08.353Z,2.23
2023-03-16T00:28:36.880Z,2.15
2023-03-16T00:31:08.264Z,2.16
2023-03-16T00:33:35.694Z,2.22
2023-03-16T00:36:05.481Z,2.19
2023-03-16T00:38:36.492Z,2.10
2023-03-16T00:41:07.751Z,2.10
2023-03-16T00:43:46.674Z,2.14
2023-03-16T00:46:17.878Z,2.08
2023-03-16T00:48:47.426Z,2.10
2023-03-16T00:51:18.053Z,2.11
2023-03-16T00:53:46.781Z,2.08
2023-03-16T00:56:14.814Z,2.06
2023-03-16T00:58:43.448Z,2.05
2023-03-16T01:01:19.630Z,2.05
2023-03-16T01:03:47.492Z,2.07
2023-03-16T01:06:20.191Z,2.06
2023-03-16T01:08:47.424Z,1.96
2023-03-16T01:11:20.627Z,1.97
2023-03-16T01:13:50.079Z,1.98
2023-03-16T01:16:19.101Z,1.92
2023-03-16T01:18:47.590Z,1.85
2023-03-16T01:21:16.106Z,1.84
2023-03-16T01:23:44.356Z,1.82
2023-03-16T01:26:12.686Z,1.76
2023-03-16T01:28:39.934Z,1.79
2023-03-16T01:31:11.720Z,1.82
2023-03-16T01:33:39.369Z,1.79
2023-03-16T01:36:14.221Z,1.77
2023-03-16T01:38:42.299Z,1.79
2023-03-16T01:41:10.635Z,1.74
2023-03-16T01:43:40.923Z,1.72
2023-03-16T01:46:19.101Z,1.73
2023-03-16T01:49:19.987Z,1.67
2023-03-16T01:52:08.653Z,1.70
2023-03-16T01:54:45.822Z,1.69
2023-03-16T01:57:22.673Z,1.67
2023-03-16T01:59:54.491Z,1.68
2023-03-16T02:02:30.249Z,1.67
2023-03-16T02:05:09.825Z,1.64
2023-03-16T02:07:46.973Z,1.55
2023-03-16T02:10:18.391Z,1.57
2023-03-16T02:12:47.395Z,1.55
2023-03-16T02:15:15.328Z,1.51
2023-03-16T02:17:46.308Z,1.47
2023-03-16T02:20:19.168Z,1.47
2023-03-16T02:22:54.164Z,1.44
2023-03-16T02:25:30.224Z,1.39
2023-03-16T02:28:20.341Z,1.35
2023-03-16T02:30:48.771Z,1.33
2023-03-16T02:33:19.602Z,1.34
2023-03-16T02:35:47.010Z,1.35
2023-03-16T02:38:14.642Z,1.26
2023-03-16T02:40:43.987Z,1.27
2023-03-16T02:43:16.888Z,1.29
2023-03-16T02:45:51.398Z,1.27
2023-03-16T02:48:32.343Z,1.25
2023-03-16T02:51:00.001Z,1.25
2023-03-16T02:53:28.133Z,1.21
2023-03-16T02:55:55.523Z,1.23
2023-03-16T02:58:23.119Z,1.13
2023-03-16T03:00:50.623Z,1.08
2023-03-16T03:03:18.972Z,1.06
2023-03-16T03:05:46.406Z,1.06
2023-03-16T03:08:14.626Z,1.06
2023-03-16T03:10:41.917Z,1.02
2023-03-16T03:13:09.476Z,1.02
2023-03-16T03:15:36.768Z,1.03
2023-03-16T03:18:04.508Z,0.99
2023-03-16T03:20:31.894Z,0.99
2023-03-16T03:22:59.548Z,1.02
2023-03-16T03:25:26.874Z,0.99
2023-03-16T03:27:54.854Z,0.97
2023-03-16T03:30:24.929Z,1.00
2023-03-16T03:32:52.733Z,0.98
2023-03-16T03:35:21.516Z,0.94
2023-03-16T03:37:50.548Z,0.98
2023-03-16T03:40:20.199Z,0.92
2023-03-16T03:42:48.442Z,0.98
2023-03-16T03:45:16.588Z,1.02
2023-03-16T03:47:44.607Z,0.87
2023-03-16T03:50:14.015Z,0.85
2023-03-16T03:52:41.845Z,0.84
2023-03-16T03:55:10.817Z,0.84
2023-03-16T03:57:38.338Z,0.80
2023-03-16T04:00:09.858Z,0.68
2023-03-16T04:02:38.993Z,0.60
2023-03-16T04:05:07.903Z,0.57
2023-03-16T04:07:35.612Z,0.53
2023-03-16T04:10:03.114Z,0.44
2023-03-16T04:12:30.656Z,0.47
2023-03-16T04:14:58.015Z,0.47
2023-03-16T04:17:25.784Z,0.49
2023-03-16T04:19:53.064Z,0.46
2023-03-16T04:22:23.266Z,0.48
2023-03-16T04:24:52.330Z,0.45
2023-03-16T04:27:19.864Z,0.44
2023-03-16T04:29:47.175Z,0.47
2023-03-16T04:32:14.761Z,0.38
2023-03-16T04:34:43.915Z,0.47
2023-03-16T04:37:12.004Z,0.43
2023-03-16T04:39:39.411Z,0.46
2023-03-16T04:42:07.240Z,0.42
2023-03-16T04:44:34.467Z,0.41
2023-03-16T04:47:05.039Z,0.49
2023-03-16T04:49:32.288Z,0.45
2023-03-16T04:52:09.711Z,0.52
2023-03-16T04:54:37.004Z,0.58
2023-03-16T04:57:05.791Z,0.63
2023-03-16T04:59:33.152Z,0.65
2023-03-16T05:02:01.108Z,0.68
2023-03-16T05:04:28.554Z,0.70
2023-03-16T05:06:56.121Z,0.73
2023-03-16T05:09:23.367Z,0.77
2023-03-16T05:11:50.967Z,0.82
2023-03-16T05:14:18.276Z,0.84
2023-03-16T05:16:45.798Z,0.85
2023-03-16T05:19:13.082Z,0.87
2023-03-16T05:21:40.683Z,0.93
2023-03-16T05:24:08.627Z,0.84
2023-03-16T05:26:36.191Z,0.90
2023-03-16T05:29:03.737Z,0.97
2023-03-16T05:31:35.016Z,0.99
2023-03-16T05:34:02.513Z,1.08
2023-03-16T05:36:30.112Z,1.10
2023-03-16T05:38:58.365Z,1.09
2023-03-16T05:41:25.960Z,1.15
2023-03-16T05:43:53.279Z,1.26
2023-03-16T05:46:21.071Z,1.28
2023-03-16T05:48:48.383Z,1.29
2023-03-16T05:51:16.075Z,1.38
2023-03-16T05:53:46.662Z,1.35
2023-03-16T05:56:14.236Z,1.38
2023-03-16T05:58:42.337Z,1.41
2023-03-16T06:01:11.338Z,1.50
2023-03-16T06:03:38.863Z,1.55
2023-03-16T06:06:06.595Z,1.46
2023-03-16T06:08:33.829Z,1.53
2023-03-16T06:11:01.566Z,1.56
2023-03-16T06:13:28.790Z,1.72
2023-03-16T06:15:56.415Z,1.58
2023-03-16T06:18:23.702Z,1.68
2023-03-16T06:20:51.525Z,1.64
2023-03-16T06:23:20.411Z,1.79
2023-03-16T06:25:49.120Z,1.86
2023-03-16T06:28:16.973Z,2.05
2023-03-16T06:30:44.475Z,1.97
2023-03-16T06:33:11.799Z,2.04
2023-03-16T06:35:39.515Z,2.19
2023-03-16T06:38:06.801Z,2.20
2023-03-16T06:40:34.477Z,2.49
2023-03-16T06:43:02.208Z,2.56
2023-03-16T06:45:29.905Z,2.73
2023-03-16T06:47:57.248Z,2.76
2023-03-16T06:50:25.379Z,3.09
2023-03-16T06:52:52.751Z,3.19
2023-03-16T06:55:20.407Z,3.40
2023-03-16T06:57:47.734Z,3.58
2023-03-16T07:00:16.207Z,3.63
2023-03-16T07:02:43.960Z,3.97
2023-03-16T07:05:15.214Z,4.60
2023-03-16T07:07:43.734Z,5.55
2023-03-16T07:10:17.692Z,5.99
2023-03-16T07:12:45.708Z,6.25
2023-03-16T07:15:14.265Z,6.67
2023-03-16T07:17:42.723Z,6.41
2023-03-16T07:20:12.925Z,6.57
2023-03-16T07:22:41.921Z,6.52
2023-03-16T07:25:11.567Z,6.53
2023-03-16T07:27:39.037Z,6.58
2023-03-16T07:30:07.520Z,6.54
2023-03-16T07:32:34.899Z,6.66
2023-03-16T07:35:02.570Z,6.59
2023-03-16T07:37:29.875Z,6.44
2023-03-16T07:39:57.466Z,7.69
2023-03-16T07:42:24.771Z,11.66
2023-03-16T07:44:52.384Z,11.05
2023-03-16T07:47:19.853Z,11.71
2023-03-16T07:49:47.419Z,12.52
2023-03-16T07:52:14.698Z,14.94
2023-03-16T07:54:45.057Z,17.81
2023-03-16T07:57:12.333Z,18.99
2023-03-16T07:59:40.411Z,17.23
2023-03-16T08:02:16.254Z,17.22
2023-03-16T08:04:45.284Z,14.34
2023-03-16T08:07:15.047Z,12.94
2023-03-16T08:09:43.801Z,12.31
2023-03-16T08:12:11.964Z,12.43
2023-03-16T08:14:39.724Z,12.61
2023-03-16T08:17:07.656Z,13.66
2023-03-16T08:19:35.272Z,19.71
2023-03-16T08:22:03.802Z,22.28
2023-03-16T08:24:33.234Z,22.85
2023-03-16T08:27:01.179Z,20.93
2023-03-16T08:29:29.104Z,20.94
2023-03-16T08:31:57.645Z,21.37
2023-03-16T08:34:27.019Z,19.55
2023-03-16T08:36:55.450Z,19.20
2023-03-16T08:39:23.178Z,17.83
2023-03-16T08:41:51.148Z,16.52
2023-03-16T08:44:20.191Z,16.96
2023-03-16T08:46:47.616Z,20.83
2023-03-16T08:49:15.482Z,25.19
2023-03-16T08:51:44.763Z,28.53
2023-03-16T08:54:13.080Z,29.70
2023-03-16T08:56:40.448Z,32.25
2023-03-16T08:59:14.150Z,34.05
2023-03-16T09:01:50.999Z,31.52
2023-03-16T09:04:18.792Z,33.82
2023-03-16T09:06:55.812Z,37.04
2023-03-16T09:09:31.205Z,31.26
2023-03-16T09:11:59.104Z,32.00
2023-03-16T09:14:26.825Z,35.08
2023-03-16T09:16:54.389Z,32.49
2023-03-16T09:19:22.954Z,33.41
2023-03-16T09:21:50.400Z,27.97
2023-03-16T09:24:18.557Z,29.31
2023-03-16T09:26:45.928Z,27.34
2023-03-16T09:29:14.860Z,29.22
2023-03-16T09:31:43.456Z,30.12
2023-03-16T09:34:11.944Z,24.84
2023-03-16T09:36:39.515Z,20.82
2023-03-16T09:39:07.705Z,20.93
2023-03-16T09:42:10.306Z,26.14
2023-03-16T09:45:11.283Z,34.80
2023-03-16T09:47:41.945Z,34.05
2023-03-16T09:50:24.439Z,25.61
2023-03-16T09:53:27.142Z,21.58
2023-03-16T09:56:16.891Z,27.27
2023-03-16T09:58:44.345Z,32.30
2023-03-16T10:01:15.076Z,35.47
2023-03-16T10:03:59.114Z,37.13
2023-03-16T10:06:28.322Z,36.09
2023-03-16T10:09:20.484Z,26.35
2023-03-16T10:11:56.932Z,22.62
2023-03-16T10:14:51.191Z,21.00
2023-03-16T10:17:28.450Z,21.08
2023-03-16T10:20:23.703Z,19.61
2023-03-16T10:22:53.119Z,18.33
2023-03-16T10:25:33.163Z,16.04
2023-03-16T10:28:01.552Z,15.51
2023-03-16T10:30:37.553Z,15.33
2023-03-16T10:33:27.778Z,29.75
2023-03-16T10:36:24.365Z,37.67
2023-03-16T10:39:00.793Z,36.87
2023-03-16T10:41:38.414Z,28.73
2023-03-16T10:44:27.331Z,23.51
2023-03-16T10:47:08.407Z,22.18
2023-03-16T10:49:44.510Z,24.58
2023-03-16T10:52:20.581Z,30.73
2023-03-16T10:55:10.791Z,24.44
2023-03-16T10:57:43.692Z,20.81
2023-03-16T11:00:13.938Z,20.10
2023-03-16T11:02:42.657Z,20.69
2023-03-16T11:05:32.845Z,33.80
2023-03-16T11:08:22.299Z,41.69
2023-03-16T11:10:58.543Z,34.78
2023-03-16T11:13:35.957Z,27.08
2023-03-16T11:16:24.116Z,23.35
2023-03-16T11:18:58.948Z,23.46
2023-03-16T11:22:16.519Z,36.13
2023-03-16T11:24:52.865Z,36.49
2023-03-16T11:27:49.177Z,40.74
2023-03-16T11:30:35.385Z,43.55
2023-03-16T11:33:04.233Z,35.65
2023-03-16T11:36:01.146Z,38.45
2023-03-16T11:39:11.201Z,33.78
2023-03-16T11:42:39.526Z,27.39
2023-03-16T11:45:19.104Z,24.97
2023-03-16T11:48:25.101Z,23.06
2023-03-16T11:51:37.045Z,21.91
2023-03-16T11:54:28.408Z,20.27
2023-03-16T11:57:38.908Z,18.49
2023-03-16T12:00:15.059Z,17.25
2023-03-16T12:03:38.214Z,16.41
2023-03-16T12:06:24.490Z,15.70
2023-03-16T12:09:04.601Z,15.43
2023-03-16T12:11:42.445Z,15.45
2023-03-16T12:14:30.918Z,15.44
2023-03-16T12:17:21.201Z,14.89
2023-03-16T12:19:54.542Z,14.95
2023-03-16T12:22:41.461Z,17.47
2023-03-16T12:25:25.845Z,16.35
2023-03-16T12:27:57.092Z,15.54
2023-03-16T12:30:41.195Z,14.85
2023-03-16T12:33:46.544Z,14.46
2023-03-16T12:36:55.976Z,14.80
2023-03-16T12:39:51.634Z,17.43
2023-03-16T12:43:10.023Z,18.08
2023-03-16T12:45:49.754Z,18.20
2023-03-16T12:48:32.357Z,23.22
2023-03-16T12:51:05.166Z,20.35
2023-03-16T12:53:51.989Z,18.86
2023-03-16T12:56:53.991Z,17.94
2023-03-16T12:59:26.210Z,17.90
2023-03-16T13:01:59.870Z,18.04
2023-03-16T13:04:38.868Z,17.78
2023-03-16T13:07:19.832Z,22.93
2023-03-16T13:10:16.633Z,23.92
2023-03-16T13:12:46.314Z,24.10
2023-03-16T13:15:20.590Z,23.73
2023-03-16T13:18:09.998Z,22.21
2023-03-16T13:21:00.993Z,20.38
2023-03-16T13:24:26.012Z,19.05
2023-03-16T13:27:01.412Z,17.96
2023-03-16T13:29:32.740Z,16.68
2023-03-16T13:32:07.661Z,17.79
2023-03-16T13:34:58.844Z,17.92
2023-03-16T13:37:30.005Z,17.19
2023-03-16T13:40:01.886Z,17.02
2023-03-16T13:42:33.688Z,17.08
2023-03-16T13:45:15.629Z,20.90
2023-03-16T13:47:45.494Z,25.31
2023-03-16T13:50:16.109Z,29.14
2023-03-16T13:52:52.887Z,33.81
2023-03-16T13:55:34.788Z,37.08
2023-03-16T13:58:04.121Z,39.45
2023-03-16T14:00:37.327Z,41.40
2023-03-16T14:03:21.975Z,39.45
2023-03-16T14:05:49.681Z,36.85
2023-03-16T14:08:24.420Z,32.37
2023-03-16T14:10:59.809Z,29.66
2023-03-16T14:13:29.167Z,31.31
2023-03-16T14:16:18.371Z,26.89
2023-03-16T14:18:52.827Z,24.62
2023-03-16T14:21:26.280Z,24.68
2023-03-16T14:24:06.978Z,24.00
2023-03-16T14:26:48.461Z,21.99
2023-03-16T14:29:31.523Z,20.38
2023-03-16T14:32:03.397Z,19.26
2023-03-16T14:34:39.871Z,18.19
2023-03-16T14:37:12.333Z,17.79
2023-03-16T14:39:41.304Z,18.71
2023-03-16T14:42:29.672Z,22.43
2023-03-16T14:45:00.961Z,25.95
2023-03-16T14:47:42.461Z,29.14
2023-03-16T14:50:25.535Z,31.99
2023-03-16T14:52:57.392Z,33.29
2023-03-16T14:55:25.824Z,33.98
2023-03-16T14:57:53.402Z,35.05
2023-03-16T15:00:23.036Z,35.87
2023-03-16T15:03:15.390Z,36.00
2023-03-16T15:05:48.629Z,34.73
2023-03-16T15:08:33.747Z,30.98
2023-03-16T15:11:06.737Z,27.80
2023-03-16T15:13:35.211Z,23.57
2023-03-16T15:16:04.658Z,21.93
2023-03-16T15:18:33.925Z,20.65
2023-03-16T15:21:03.011Z,19.70
2023-03-16T15:23:31.363Z,18.14
2023-03-16T15:26:00.711Z,17.16
2023-03-16T15:28:28.722Z,16.68
2023-03-16T15:30:59.400Z,16.03
2023-03-16T15:33:27.606Z,15.64
2023-03-16T15:36:02.166Z,15.22
2023-03-16T15:38:39.853Z,14.89
2023-03-16T15:41:14.608Z,14.41
2023-03-16T15:43:42.060Z,14.29
2023-03-16T15:46:10.583Z,14.05
2023-03-16T15:48:38.704Z,13.87
2023-03-16T15:51:16.242Z,13.46
2023-03-16T15:54:05.014Z,12.99
2023-03-16T15:56:52.839Z,12.88
2023-03-16T15:59:22.310Z,12.71
2023-03-16T16:01:52.548Z,12.54
2023-03-16T16:04:25.028Z,12.49
2023-03-16T16:06:55.429Z,12.61
2023-03-16T16:09:23.481Z,12.56
2023-03-16T16:11:51.568Z,12.38
2023-03-16T16:14:26.606Z,12.11
2023-03-16T16:16:54.690Z,11.99
2023-03-16T16:19:22.115Z,11.93
2023-03-16T16:21:49.878Z,11.79
2023-03-16T16:24:18.580Z,11.52
2023-03-16T16:26:55.610Z,11.31
2023-03-16T16:29:32.181Z,11.06
2023-03-16T16:32:01.005Z,10.93
2023-03-16T16:34:28.741Z,10.81
2023-03-16T16:36:57.813Z,10.68
2023-03-16T16:39:25.523Z,10.56
2023-03-16T16:41:56.756Z,10.36
2023-03-16T16:44:33.833Z,10.13
2023-03-16T16:47:03.724Z,9.89
2023-03-16T16:49:31.583Z,9.77
2023-03-16T16:51:59.718Z,9.61
2023-03-16T16:54:32.166Z,9.41
2023-03-16T16:57:01.690Z,9.35
2023-03-16T16:59:37.011Z,9.23
2023-03-16T17:02:30.905Z,9.15
2023-03-16T17:04:58.773Z,9.16
2023-03-16T17:07:26.635Z,9.08
2023-03-16T17:09:54.284Z,9.03
2023-03-16T17:12:24.644Z,8.94
2023-03-16T17:14:52.286Z,8.81
2023-03-16T17:17:20.391Z,8.67
2023-03-16T17:19:48.578Z,8.62
2023-03-16T17:22:24.958Z,8.52
2023-03-16T17:24:54.110Z,8.40
2023-03-16T17:27:33.179Z,8.34
2023-03-16T17:30:00.812Z,8.28
2023-03-16T17:32:28.647Z,8.22
2023-03-16T17:34:56.404Z,8.18
2023-03-16T17:37:24.133Z,8.13
2023-03-16T17:39:52.737Z,8.10
2023-03-16T17:42:23.216Z,8.04
2023-03-16T17:44:53.310Z,8.00
2023-03-16T17:47:27.588Z,7.93
2023-03-16T17:49:57.156Z,7.86
2023-03-16T17:52:29.368Z,7.78
2023-03-16T17:54:57.359Z,7.69
2023-03-16T17:57:31.322Z,7.66
2023-03-16T18:00:01.921Z,7.58
2023-03-16T18:02:57.753Z,7.50
2023-03-16T18:05:31.279Z,7.44
2023-03-16T18:08:22.787Z,7.26
2023-03-16T18:11:01.122Z,7.18
2023-03-16T18:13:38.001Z,7.12
2023-03-16T18:16:07.797Z,6.97
2023-03-16T18:18:39.520Z,6.90
2023-03-16T18:21:07.261Z,6.90
2023-03-16T18:23:36.982Z,6.84
2023-03-16T18:26:06.390Z,6.82
2023-03-16T18:28:35.241Z,6.78
2023-03-16T18:31:05.275Z,6.76
2023-03-16T18:33:38.396Z,6.69
2023-03-16T18:36:18.328Z,6.55
2023-03-16T18:38:50.546Z,6.54
2023-03-16T18:41:25.292Z,6.37
2023-03-16T18:43:58.171Z,6.36
2023-03-16T18:46:35.583Z,6.34
2023-03-16T18:49:34.179Z,6.20
2023-03-16T18:52:01.861Z,6.18
2023-03-16T18:54:36.851Z,6.17
2023-03-16T18:57:14.463Z,6.19
2023-03-16T18:59:42.391Z,6.09
2023-03-16T19:02:39.773Z,6.08
2023-03-16T19:05:31.828Z,6.07
2023-03-16T19:07:59.937Z,6.00
2023-03-16T19:10:56.483Z,5.98
2023-03-16T19:13:26.368Z,6.02
2023-03-16T19:15:57.883Z,6.01
2023-03-16T19:18:26.348Z,6.02
2023-03-16T19:20:56.593Z,6.01
2023-03-16T19:23:31.063Z,5.98
2023-03-16T19:25:59.271Z,5.99
2023-03-16T19:28:34.858Z,5.93
2023-03-16T19:31:19.380Z,5.86
2023-03-16T19:33:48.402Z,5.82
2023-03-16T19:36:26.585Z,5.76
2023-03-16T19:38:54.483Z,5.65
2023-03-16T19:41:35.585Z,5.67
2023-03-16T19:44:26.407Z,5.58
2023-03-16T19:46:56.277Z,5.62
2023-03-16T19:49:27.214Z,5.62
2023-03-16T19:51:56.823Z,5.63
2023-03-16T19:54:34.005Z,5.49
2023-03-16T19:57:12.513Z,5.32
2023-03-16T19:59:41.924Z,5.31
2023-03-16T20:02:35.875Z,5.26
2023-03-16T20:05:03.953Z,5.26
2023-03-16T20:07:37.942Z,5.21
2023-03-16T20:10:12.323Z,5.18
2023-03-16T20:12:42.664Z,5.19
2023-03-16T20:15:21.068Z,5.17
2023-03-16T20:17:51.199Z,5.22
2023-03-16T20:20:29.735Z,5.21
2023-03-16T20:22:59.758Z,5.04
2023-03-16T20:25:32.748Z,4.82
2023-03-16T20:28:03.998Z,4.80
2023-03-16T20:30:32.270Z,4.71
2023-03-16T20:33:00.222Z,4.61
2023-03-16T20:35:32.527Z,4.59
2023-03-16T20:38:00.524Z,4.56
2023-03-16T20:40:28.418Z,4.60
2023-03-16T20:42:56.536Z,4.56
2023-03-16T20:45:30.614Z,4.52
2023-03-16T20:47:58.529Z,4.47
2023-03-16T20:50:31.016Z,4.38
2023-03-16T20:52:58.651Z,4.34
2023-03-16T20:55:29.441Z,4.35
2023-03-16T20:57:57.703Z,4.38
2023-03-16T21:00:33.322Z,4.36
2023-03-16T21:03:05.073Z,4.35
2023-03-16T21:05:32.545Z,4.36
2023-03-16T21:08:00.130Z,4.21
2023-03-16T21:10:28.442Z,4.17
2023-03-16T21:12:57.823Z,4.19
2023-03-16T21:15:30.589Z,4.11
2023-03-16T21:18:07.418Z,4.13
2023-03-16T21:20:36.775Z,4.09
2023-03-16T21:23:04.571Z,4.01
2023-03-16T21:25:38.613Z,3.88
2023-03-16T21:28:06.248Z,3.93
2023-03-16T21:30:39.883Z,3.90
2023-03-16T21:33:35.541Z,3.81
2023-03-16T21:36:07.236Z,3.74
2023-03-16T21:38:35.137Z,3.66
2023-03-16T21:41:02.387Z,3.53
2023-03-16T21:43:31.565Z,3.42
2023-03-16T21:45:59.701Z,3.44
2023-03-16T21:48:53.056Z,3.40
2023-03-16T21:51:27.972Z,3.47
2023-03-16T21:53:56.020Z,3.37
2023-03-16T21:56:26.190Z,3.31
2023-03-16T21:58:54.953Z,3.39
2023-03-16T22:01:30.444Z,3.40
2023-03-16T22:04:09.046Z,3.36
2023-03-16T22:06:36.798Z,3.28
2023-03-16T22:09:04.504Z,3.35
2023-03-16T22:11:32.207Z,3.37
2023-03-16T22:14:00.087Z,3.26
2023-03-16T22:16:34.983Z,3.18
2023-03-16T22:19:04.312Z,3.07
2023-03-16T22:21:41.285Z,3.01
2023-03-16T22:24:30.068Z,3.00
2023-03-16T22:26:58.129Z,2.93
2023-03-16T22:29:36.726Z,2.90
2023-03-16T22:32:18.341Z,2.83
2023-03-16T22:34:48.448Z,2.76
2023-03-16T22:37:24.223Z,2.67
2023-03-16T22:39:53.130Z,2.70
2023-03-16T22:42:35.882Z,2.67
2023-03-16T22:45:17.080Z,2.64
2023-03-16T22:47:44.887Z,2.71
2023-03-16T22:50:18.004Z,2.67
2023-03-16T22:52:50.167Z,2.60
2023-03-16T22:55:29.755Z,2.54
2023-03-16T22:58:30.339Z,2.56
2023-03-16T23:01:02.490Z,2.60
2023-03-16T23:03:30.302Z,2.61
2023-03-16T23:05:57.948Z,2.56
2023-03-16T23:08:26.778Z,2.55
2023-03-16T23:10:56.069Z,2.55
2023-03-16T23:13:25.609Z,2.58
2023-03-16T23:15:53.770Z,2.47
2023-03-16T23:18:25.458Z,2.34
2023-03-16T23:20:53.314Z,2.34
2023-03-16T23:23:21.144Z,2.33
2023-03-16T23:25:48.871Z,2.28
2023-03-16T23:28:23.119Z,2.25
2023-03-16T23:30:51.157Z,2.30
2023-03-16T23:33:18.507Z,2.21
2023-03-16T23:35:47.072Z,2.29
2023-03-16T23:38:14.444Z,2.26
2023-03-16T23:40:42.303Z,2.24
2023-03-16T23:43:09.810Z,2.23
2023-03-16T23:45:39.056Z,2.22
2023-03-16T23:48:13.966Z,2.12
2023-03-16T23:50:42.755Z,2.13
2023-03-16T23:53:17.622Z,2.20
2023-03-16T23:55:47.002Z,2.20
2023-03-16T23:58:16.322Z,2.17
